Time;durP1;ratioP1;P1;durP2;ratioP2;P2;SDS_P1;SDS_P2;PMS_P1;PMS_P2;Temp;Humidity;BMP_temperature;BMP_pressure;BME280_temperature;BME280_humidity;BME280_pressure;Samples;Min_cycle;Max_cycle;Signal;HPM_P1;HPM_P2
2023/10/27 00:02:15;;;;;;;10.02;2.95;;;;;;;16.04;67.53;94273.63;5101697;28;20036;-84
2023/10/27 00:04:41;;;;;;;13.32;3.05;;;;;;;16.18;67.84;94276.78;5104111;28;20142;-84
2023/10/27 00:07:06;;;;;;;8.40;3.20;;;;;;;16.18;67.83;94279.47;5105344;28;20068;-83
2023/10/27 00:09:34;;;;;;;8.85;3.38;;;;;;;16.17;68.24;94295.88;5087650;28;20494;-84
2023/10/27 00:12:00;;;;;;;10.23;2.95;;;;;;;15.99;68.45;94246.31;5104503;28;20348;-84
2023/10/27 00:14:25;;;;;;;8.02;2.67;;;;;;;16.17;68.07;94266.44;5085789;28;20114;-84
2023/10/27 00:16:52;;;;;;;8.48;2.55;;;;;;;15.97;67.68;94233.25;5103835;28;20040;-84
2023/10/27 00:19:18;;;;;;;9.13;3.13;;;;;;;16.38;67.44;94298.47;5085145;28;20032;-84
2023/10/27 00:21:43;;;;;;;9.40;3.45;;;;;;;16.36;67.52;94292.66;5102311;28;20043;-84
2023/10/27 00:24:09;;;;;;;12.70;3.03;;;;;;;16.33;67.59;94275.38;5085857;28;20063;-84
2023/10/27 00:26:34;;;;;;;13.40;3.33;;;;;;;16.38;67.57;94293.91;5098406;28;20040;-84
2023/10/27 00:29:00;;;;;;;9.10;2.75;;;;;;;16.21;67.51;94245.94;5079657;28;20418;-84
2023/10/27 00:31:25;;;;;;;9.02;3.42;;;;;;;15.83;67.35;94198.81;5079544;28;20044;-84
2023/10/27 00:33:50;;;;;;;9.23;3.22;;;;;;;16.39;67.22;94292.03;5085765;28;20015;-86
2023/10/27 00:36:17;;;;;;;10.40;3.33;;;;;;;16.27;67.75;94302.66;5099403;28;20096;-86
2023/10/27 00:38:42;;;;;;;8.77;3.38;;;;;;;16.20;68.06;94285.28;5098828;28;20039;-86
2023/10/27 00:41:07;;;;;;;8.23;3.25;;;;;;;16.26;67.67;94277.81;5099206;28;20020;-85
2023/10/27 00:43:33;;;;;;;15.82;2.88;;;;;;;15.62;68.06;94181.25;5099833;28;20027;-85
2023/10/27 00:45:59;;;;;;;9.18;3.20;;;;;;;15.88;68.98;94240.59;5099001;28;20043;-86
2023/10/27 00:48:24;;;;;;;10.90;2.80;;;;;;;15.61;69.27;94228.56;5096954;28;20032;-86
2023/10/27 00:50:50;;;;;;;12.95;2.97;;;;;;;15.71;69.36;94220.16;5095156;28;20035;-86
2023/10/27 00:53:18;;;;;;;10.07;2.78;;;;;;;15.59;69.47;94230.00;5095979;28;20028;-86
2023/10/27 00:55:44;;;;;;;9.57;3.53;;;;;;;15.49;69.58;94212.44;5094093;28;20086;-87
2023/10/27 00:58:11;;;;;;;14.60;2.88;;;;;;;15.84;69.46;94250.38;5093327;28;20032;-86
2023/10/27 01:00:37;;;;;;;8.43;3.00;;;;;;;15.50;69.08;94203.31;5111492;28;20114;-86
2023/10/27 01:03:04;;;;;;;6.40;2.72;;;;;;;15.91;68.66;94279.25;5084890;28;20037;-86
2023/10/27 01:05:29;;;;;;;15.45;3.55;;;;;;;15.97;68.92;94269.91;5074976;28;20048;-86
2023/10/27 01:07:55;;;;;;;12.68;2.83;;;;;;;16.03;68.64;94277.41;5074749;28;20090;-86
2023/10/27 01:10:21;;;;;;;9.30;2.80;;;;;;;15.78;68.23;94244.47;5072857;28;20028;-86
2023/10/27 01:12:50;;;;;;;11.60;3.60;;;;;;;16.16;68.31;94291.63;5073476;28;20032;-86
2023/10/27 01:15:17;;;;;;;8.60;2.55;;;;;;;15.77;68.96;94268.84;5055729;28;20066;-81
2023/10/27 01:17:43;;;;;;;6.35;2.85;;;;;;;16.06;68.95;94294.69;5054718;28;20040;-81
2023/10/27 01:20:09;;;;;;;13.63;2.88;;;;;;;16.11;68.67;94286.47;5072771;28;20092;-81
2023/10/27 01:22:44;;;;;;;10.27;2.45;;;;;;;15.46;68.57;94197.06;5072879;28;20563;-82
2023/10/27 01:25:09;;;;;;;13.88;3.42;;;;;;;15.34;68.59;94179.09;5072613;28;20032;-81
2023/10/27 01:27:35;;;;;;;9.75;2.95;;;;;;;15.62;68.51;94246.16;5054770;28;20037;-81
2023/10/27 01:30:00;;;;;;;11.00;2.88;;;;;;;16.10;68.54;94306.28;5054629;28;20036;-82
2023/10/27 01:32:26;;;;;;;9.73;3.45;;;;;;;15.74;68.43;94246.22;5054438;28;20043;-81
2023/10/27 01:34:51;;;;;;;10.65;4.07;;;;;;;15.68;69.08;94255.53;5054810;28;20028;-81
2023/10/27 01:37:17;;;;;;;11.15;3.88;;;;;;;15.45;69.90;94211.53;5071679;28;20043;-81
2023/10/27 01:39:44;;;;;;;10.30;3.33;;;;;;;15.98;69.48;94299.00;5053964;28;20396;-82
2023/10/27 01:42:10;;;;;;;11.80;2.60;;;;;;;15.62;69.83;94245.38;5053318;28;20051;-81
2023/10/27 01:44:35;;;;;;;10.85;3.25;;;;;;;15.83;70.23;94313.75;5074683;28;20036;-85
2023/10/27 01:47:01;;;;;;;11.15;2.70;;;;;;;15.22;70.98;94237.78;5075946;28;20036;-85
2023/10/27 01:49:26;;;;;;;7.97;3.40;;;;;;;15.42;71.37;94246.91;5060044;28;20040;-86
2023/10/27 01:51:52;;;;;;;9.40;2.88;;;;;;;15.70;70.83;94274.72;5078812;28;20095;-86
2023/10/27 01:54:17;;;;;;;13.00;3.80;;;;;;;15.23;70.82;94190.50;5079151;28;20040;-85
2023/10/27 01:56:42;;;;;;;12.80;3.65;;;;;;;15.90;70.72;94293.72;5077575;28;20043;-86
2023/10/27 01:59:08;;;;;;;16.58;3.30;;;;;;;15.03;70.55;94160.78;5078128;28;20028;-85
2023/10/27 02:01:33;;;;;;;12.73;3.72;;;;;;;15.57;71.37;94267.72;5079580;28;20138;-86
2023/10/27 02:03:59;;;;;;;18.45;5.35;;;;;;;15.20;71.70;94194.59;5077327;28;20036;-86
2023/10/27 02:06:26;;;;;;;12.15;3.50;;;;;;;14.99;72.10;94188.47;5059407;28;20032;-86
2023/10/27 02:08:51;;;;;;;12.93;3.60;;;;;;;15.03;72.01;94198.16;5061345;28;20036;-85
2023/10/27 02:11:17;;;;;;;10.45;3.55;;;;;;;15.27;72.24;94239.47;5062256;28;20408;-85
2023/10/27 02:13:43;;;;;;;12.00;3.80;;;;;;;15.25;73.11;94233.69;5060271;28;20029;-86
2023/10/27 02:16:08;;;;;;;24.83;4.13;;;;;;;15.49;72.93;94271.22;5060019;28;20032;-85
2023/10/27 02:18:34;;;;;;;11.00;3.83;;;;;;;15.56;72.76;94270.75;5076169;28;20032;-85
2023/10/27 02:20:59;;;;;;;12.13;4.10;;;;;;;15.04;72.87;94205.06;5076100;28;20040;-85
2023/10/27 02:23:26;;;;;;;14.98;3.90;;;;;;;15.67;72.84;94283.38;5059790;28;20139;-83
2023/10/27 02:25:52;;;;;;;12.77;4.05;;;;;;;15.49;72.29;94225.00;5076342;28;20028;-83
2023/10/27 02:28:18;;;;;;;15.38;4.07;;;;;;;14.78;73.07;94159.09;5058891;28;20124;-83
2023/10/27 02:30:44;;;;;;;14.38;3.95;;;;;;;15.44;73.45;94266.06;5060472;28;20115;-83
2023/10/27 02:33:09;;;;;;;13.55;4.35;;;;;;;15.12;73.20;94171.41;5061643;28;20059;-83
2023/10/27 02:35:35;;;;;;;17.17;4.13;;;;;;;14.82;73.62;94146.66;5063668;28;20036;-83
2023/10/27 02:38:00;;;;;;;17.90;4.22;;;;;;;15.57;73.37;94248.25;5083047;28;20044;-83
2023/10/27 02:40:26;;;;;;;9.43;3.58;;;;;;;15.40;73.14;94223.22;5065329;28;20506;-83
2023/10/27 02:42:51;;;;;;;15.02;4.53;;;;;;;14.48;73.71;94110.31;5063180;28;20060;-84
2023/10/27 02:45:16;;;;;;;11.27;4.00;;;;;;;15.04;73.42;94177.59;5080058;28;20454;-83
2023/10/27 02:47:42;;;;;;;17.35;4.30;;;;;;;15.18;73.59;94217.41;5059481;28;20029;-83
2023/10/27 02:50:08;;;;;;;18.15;4.22;;;;;;;15.38;73.47;94238.00;5080326;28;20060;-83
2023/10/27 02:52:33;;;;;;;21.98;4.82;;;;;;;15.49;73.49;94247.16;5062169;28;20123;-83
2023/10/27 02:54:58;;;;;;;10.80;3.80;;;;;;;15.52;73.28;94235.84;5064791;28;20119;-83
2023/10/27 02:57:24;;;;;;;9.73;3.70;;;;;;;15.49;74.07;94262.41;5098780;28;20036;-84
2023/10/27 02:59:49;;;;;;;11.85;4.05;;;;;;;15.58;74.12;94249.81;5064194;28;20456;-83
2023/10/27 03:02:15;;;;;;;12.43;4.60;;;;;;;15.67;73.82;94282.59;5064188;28;20499;-83
2023/10/27 03:04:40;;;;;;;11.10;4.38;;;;;;;15.28;74.15;94235.69;5064702;28;20083;-83
2023/10/27 03:07:06;;;;;;;19.17;4.68;;;;;;;13.59;74.57;93991.38;5063717;28;20044;-83
2023/10/27 03:09:31;;;;;;;16.67;3.97;;;;;;;15.37;74.41;94253.25;5097296;28;20074;-83
2023/10/27 03:11:56;;;;;;;15.27;4.15;;;;;;;14.98;74.49;94193.03;5081346;28;20040;-83
2023/10/27 03:14:22;;;;;;;11.20;4.28;;;;;;;14.85;74.42;94179.94;5095535;28;20032;-84
2023/10/27 03:16:47;;;;;;;19.42;4.85;;;;;;;14.81;74.30;94165.66;5079200;28;20068;-84
2023/10/27 03:19:13;;;;;;;13.50;4.78;;;;;;;14.62;74.56;94129.53;5093941;28;20178;-83
2023/10/27 03:21:38;;;;;;;19.13;5.88;;;;;;;15.12;75.11;94232.81;5094241;28;20039;-83
2023/10/27 03:24:05;;;;;;;11.45;3.88;;;;;;;15.35;75.18;94246.66;5079056;28;20029;-83
2023/10/27 03:26:31;;;;;;;14.50;4.53;;;;;;;14.84;74.57;94170.34;5078729;28;20062;-83
2023/10/27 03:28:57;;;;;;;12.73;4.30;;;;;;;15.42;75.25;94261.06;5077729;28;20031;-83
2023/10/27 03:31:22;;;;;;;13.68;4.05;;;;;;;15.40;75.11;94241.91;5078871;28;20511;-83
2023/10/27 03:33:48;;;;;;;18.45;4.38;;;;;;;15.22;75.17;94229.78;5060532;28;20123;-83
2023/10/27 03:36:13;;;;;;;17.38;4.35;;;;;;;15.57;74.79;94254.38;5076308;28;20021;-82
2023/10/27 03:38:39;;;;;;;14.00;5.07;;;;;;;14.97;74.31;94177.31;5092070;28;20036;-81
2023/10/27 03:41:04;;;;;;;13.98;4.53;;;;;;;15.48;74.04;94237.63;5091364;28;20035;-81
2023/10/27 03:43:30;;;;;;;19.15;4.95;;;;;;;14.96;74.65;94157.06;5058410;28;20106;-81
2023/10/27 03:45:56;;;;;;;17.20;3.88;;;;;;;15.65;74.43;94244.72;5075658;28;20060;-82
2023/10/27 03:48:21;;;;;;;10.18;3.83;;;;;;;15.20;73.41;94172.44;5076799;28;20033;-81
2023/10/27 03:50:46;;;;;;;16.98;5.72;;;;;;;14.98;74.17;94163.66;5077416;28;20028;-80
2023/10/27 03:53:12;;;;;;;14.65;5.10;;;;;;;15.03;75.33;94232.88;5087575;28;20045;-82
2023/10/27 03:55:37;;;;;;;11.57;4.25;;;;;;;14.43;75.73;94139.81;5094430;28;20043;-82
2023/10/27 03:58:13;;;;;;;18.42;4.13;;;;;;;15.03;75.18;94187.47;5092534;28;20034;-81
2023/10/27 04:00:38;;;;;;;16.35;5.07;;;;;;;15.33;74.86;94219.50;5076320;28;20035;-81
2023/10/27 04:03:04;;;;;;;12.80;4.10;;;;;;;15.39;74.61;94216.31;5076181;28;20107;-85
2023/10/27 04:05:29;;;;;;;16.90;4.53;;;;;;;15.14;74.40;94157.72;5062317;28;20071;-83
2023/10/27 04:07:55;;;;;;;16.58;4.43;;;;;;;15.17;74.12;94157.88;5078878;28;20041;-83
2023/10/27 04:10:21;;;;;;;18.88;4.20;;;;;;;15.56;74.15;94230.66;5060854;28;20035;-82
2023/10/27 04:12:47;;;;;;;22.35;4.85;;;;;;;15.63;73.73;94222.91;5061601;28;20060;-83
2023/10/27 04:15:12;;;;;;;16.48;4.00;;;;;;;15.76;73.47;94206.56;5065717;28;20021;-83
2023/10/27 04:17:38;;;;;;;14.05;4.07;;;;;;;15.80;73.25;94201.34;5059856;28;20032;-84
2023/10/27 04:20:05;;;;;;;17.88;4.85;;;;;;;15.01;72.99;94087.47;5049936;28;20092;-84
2023/10/27 04:22:30;;;;;;;17.40;5.75;;;;;;;15.71;73.13;94203.34;5090987;28;20028;-85
2023/10/27 04:24:56;;;;;;;27.20;4.72;;;;;;;14.99;73.26;94097.69;5073940;28;20071;-85
2023/10/27 04:27:21;;;;;;;21.02;5.22;;;;;;;15.70;73.02;94189.19;5081927;28;20035;-85
2023/10/27 04:29:47;;;;;;;14.13;5.63;;;;;;;15.30;73.05;94132.78;5061884;28;20039;-86
2023/10/27 04:32:15;;;;;;;22.08;5.18;;;;;;;14.92;73.65;94086.75;5067957;28;20052;-86
2023/10/27 04:34:41;;;;;;;18.13;4.90;;;;;;;13.17;73.83;93832.63;5057933;28;20030;-86
2023/10/27 04:37:07;;;;;;;19.15;4.38;;;;;;;15.25;73.66;94127.66;5055084;28;20024;-86
2023/10/27 04:39:32;;;;;;;23.25;4.38;;;;;;;14.73;73.41;94051.72;5066426;28;20089;-86
2023/10/27 04:41:58;;;;;;;28.13;5.20;;;;;;;15.33;73.14;94136.69;5045415;28;20024;-86
2023/10/27 04:44:26;;;;;;;25.48;5.32;;;;;;;15.44;72.77;94145.84;5025281;28;20458;-87
2023/10/27 04:46:52;;;;;;;30.45;6.15;;;;;;;15.77;72.77;94200.13;5038667;28;20032;-85
2023/10/27 04:49:18;;;;;;;17.42;5.57;;;;;;;15.13;72.59;94076.06;5034350;28;20509;-86
2023/10/27 04:51:43;;;;;;;22.73;5.55;;;;;;;13.96;72.99;93941.06;5049825;28;20032;-86
2023/10/27 04:54:09;;;;;;;14.98;5.35;;;;;;;14.75;73.21;94055.63;5055389;28;20033;-87
2023/10/27 04:56:34;;;;;;;30.75;5.65;;;;;;;15.28;73.21;94116.28;5056231;28;20105;-86
2023/10/27 04:59:00;;;;;;;15.65;4.65;;;;;;;13.64;73.30;93870.56;5046286;28;20405;-86
2023/10/27 05:01:25;;;;;;;23.65;6.35;;;;;;;15.07;73.33;94092.28;5018318;28;20465;-86
2023/10/27 05:03:54;;;;;;;27.08;5.32;;;;;;;14.76;74.22;94075.09;5035076;28;20041;-84
2023/10/27 05:06:20;;;;;;;19.23;4.93;;;;;;;15.48;74.25;94194.06;5030756;28;20261;-86
2023/10/27 05:08:45;;;;;;;16.63;6.32;;;;;;;14.87;74.96;94119.00;5012866;28;20514;-87
2023/10/27 05:11:12;;;;;;;27.45;6.40;;;;;;;13.35;74.21;93880.13;5001142;28;20584;-87
2023/10/27 05:13:37;;;;;;;24.05;6.00;;;;;;;14.11;73.62;93975.13;5020896;23;20129;-80
2023/10/27 05:16:03;;;;;;;22.15;5.40;;;;;;;15.11;73.99;94150.34;5029696;28;20025;-78
2023/10/27 05:18:29;;;;;;;16.58;5.38;;;;;;;14.80;74.26;94084.03;5025669;28;20029;-79
2023/10/27 05:20:54;;;;;;;19.80;5.95;;;;;;;15.57;74.18;94186.78;5034836;28;20026;-79
2023/10/27 05:23:20;;;;;;;28.08;6.10;;;;;;;15.58;73.86;94177.66;5050147;28;20398;-79
2023/10/27 05:25:45;;;;;;;17.27;5.43;;;;;;;15.58;73.93;94175.75;5031934;28;20028;-78
2023/10/27 05:28:11;;;;;;;18.15;5.00;;;;;;;15.64;73.39;94173.69;5046929;28;20032;-80
2023/10/27 05:30:37;;;;;;;35.05;6.03;;;;;;;15.72;73.30;94173.59;5037369;28;20052;-80
2023/10/27 05:33:03;;;;;;;19.23;6.25;;;;;;;15.63;72.93;94161.44;5018532;28;20098;-80
2023/10/27 05:35:29;;;;;;;14.63;4.95;;;;;;;15.48;73.77;94165.47;5005505;28;20332;-79
2023/10/27 05:37:54;;;;;;;17.90;5.10;;;;;;;15.75;73.06;94193.53;5008388;28;20690;-79
2023/10/27 05:40:20;;;;;;;24.60;5.78;;;;;;;15.67;73.18;94176.47;5039731;28;20044;-79
2023/10/27 05:42:46;;;;;;;22.10;5.10;;;;;;;15.85;72.85;94177.09;5000385;28;20032;-79
2023/10/27 05:45:11;;;;;;;26.80;5.25;;;;;;;15.94;72.50;94175.13;5018784;28;20051;-79
2023/10/27 05:47:40;;;;;;;25.25;6.07;;;;;;;15.78;72.70;94160.81;5033108;28;20094;-79
2023/10/27 05:50:07;;;;;;;17.65;6.18;;;;;;;15.80;72.53;94163.91;5035544;28;21048;-79
2023/10/27 05:52:32;;;;;;;10.18;4.68;;;;;;;15.80;72.36;94170.03;5009609;28;20025;-79
2023/10/27 05:54:58;;;;;;;10.73;4.30;;;;;;;15.93;72.07;94197.63;5031797;28;20036;-79
2023/10/27 05:57:23;;;;;;;17.00;5.05;;;;;;;15.89;71.86;94191.34;5039443;28;20053;-79
2023/10/27 05:59:49;;;;;;;13.55;4.80;;;;;;;16.06;71.61;94206.44;5024039;28;20484;-80
2023/10/27 06:02:14;;;;;;;17.05;4.20;;;;;;;15.98;71.29;94218.78;5021945;28;20055;-79
2023/10/27 06:04:40;;;;;;;17.60;5.38;;;;;;;16.08;70.91;94214.91;5022609;28;20024;-80
2023/10/27 06:07:06;;;;;;;21.20;5.22;;;;;;;16.10;70.22;94210.78;5011457;28;20040;-80
2023/10/27 06:09:32;;;;;;;19.50;5.32;;;;;;;16.24;69.65;94229.22;5004523;28;20049;-80
2023/10/27 06:11:58;;;;;;;28.50;5.55;;;;;;;16.29;69.93;94234.34;5001069;28;20129;-80
2023/10/27 06:14:23;;;;;;;13.60;5.65;;;;;;;16.08;70.13;94188.97;4984890;28;20045;-80
2023/10/27 06:16:49;;;;;;;30.40;7.88;;;;;;;16.26;70.25;94213.59;5002197;28;20061;-80
2023/10/27 06:19:14;;;;;;;17.17;5.75;;;;;;;16.37;70.08;94228.13;4976941;28;20121;-80
2023/10/27 06:21:40;;;;;;;26.88;7.75;;;;;;;16.00;69.73;94162.31;4988732;28;20037;-81
2023/10/27 06:24:08;;;;;;;30.92;8.32;;;;;;;16.33;69.92;94210.38;5034337;28;20086;-81
2023/10/27 06:26:33;;;;;;;31.30;5.55;;;;;;;16.45;69.94;94210.41;5024799;28;20128;-80
2023/10/27 06:28:59;;;;;;;26.02;5.85;;;;;;;16.58;69.59;94218.09;5025542;28;20505;-81
2023/10/27 06:31:24;;;;;;;21.92;6.38;;;;;;;16.49;69.92;94208.63;5047111;28;20040;-81
2023/10/27 06:33:49;;;;;;;25.90;5.72;;;;;;;16.30;70.70;94216.41;5041974;28;20040;-80
2023/10/27 06:36:15;;;;;;;19.70;5.57;;;;;;;16.25;71.15;94230.75;5025720;28;20032;-81
2023/10/27 06:38:41;;;;;;;20.92;5.72;;;;;;;16.15;70.89;94185.72;5046318;28;20039;-82
2023/10/27 06:41:06;;;;;;;17.23;5.15;;;;;;;16.52;70.94;94224.81;5017649;28;20033;-80
2023/10/27 06:43:32;;;;;;;17.73;5.88;;;;;;;16.53;70.28;94196.16;4980182;28;20053;-80
2023/10/27 06:45:57;;;;;;;16.65;4.90;;;;;;;16.64;70.72;94209.88;5026453;28;20029;-80
2023/10/27 06:48:23;;;;;;;16.83;5.15;;;;;;;16.38;70.51;94157.44;5027270;28;20029;-80
2023/10/27 06:50:48;;;;;;;13.73;4.78;;;;;;;16.40;71.21;94178.53;5016450;28;20466;-80
2023/10/27 06:53:14;;;;;;;18.20;5.03;;;;;;;16.76;70.70;94226.75;5029450;28;20040;-81
2023/10/27 06:55:40;;;;;;;15.75;4.65;;;;;;;16.88;70.41;94223.28;5009220;28;20477;-81
2023/10/27 06:58:07;;;;;;;22.85;5.75;;;;;;;16.81;69.85;94205.09;5030380;28;20090;-81
2023/10/27 07:00:33;;;;;;;16.83;4.97;;;;;;;16.99;69.52;94189.56;5010454;28;20029;-81
2023/10/27 07:02:58;;;;;;;17.75;5.32;;;;;;;17.11;68.10;94207.50;5016688;28;20098;-81
2023/10/27 07:05:29;;;;;;;34.15;6.85;;;;;;;16.85;68.08;94173.84;5037581;28;20517;-81
2023/10/27 07:07:54;;;;;;;37.05;7.85;;;;;;;16.79;68.38;94161.00;5062872;28;20025;-80
2023/10/27 07:10:20;;;;;;;22.38;6.40;;;;;;;16.99;68.38;94189.56;5047421;22;20035;-77
2023/10/27 07:12:45;;;;;;;24.52;6.65;;;;;;;17.32;67.94;94224.22;4978806;28;20069;-77
2023/10/27 07:15:13;;;;;;;21.17;5.95;;;;;;;17.33;67.48;94215.06;4985345;28;20136;-76
2023/10/27 07:17:38;;;;;;;15.18;5.78;;;;;;;17.49;67.00;94217.81;4983912;28;20626;-75
2023/10/27 07:20:05;;;;;;;23.00;6.95;;;;;;;17.57;66.45;94223.03;4979461;28;20037;-75
2023/10/27 07:22:30;;;;;;;32.75;6.78;;;;;;;17.42;66.19;94202.31;4981438;28;20098;-76
2023/10/27 07:24:56;;;;;;;19.85;5.78;;;;;;;17.67;65.94;94230.63;4977161;28;20984;-77
2023/10/27 07:27:21;;;;;;;25.38;6.53;;;;;;;17.51;65.75;94188.78;4984018;28;20033;-76
2023/10/27 07:29:47;;;;;;;25.88;6.05;;;;;;;17.80;65.59;94212.59;4981623;28;20058;-74
2023/10/27 07:32:13;;;;;;;15.60;6.53;;;;;;;17.87;65.27;94206.63;4991862;28;20050;-75
2023/10/27 07:34:39;;;;;;;23.25;5.57;;;;;;;17.63;65.01;94168.06;4982252;28;20664;-75
2023/10/27 07:37:05;;;;;;;24.80;6.32;;;;;;;17.66;65.08;94190.75;4981700;28;20148;-75
2023/10/27 07:39:30;;;;;;;21.80;5.90;;;;;;;17.93;64.91;94214.09;4985683;28;20396;-76
2023/10/27 07:41:56;;;;;;;20.75;6.57;;;;;;;17.77;65.03;94191.84;4951445;28;20038;-76
2023/10/27 07:44:22;;;;;;;23.00;6.18;;;;;;;17.77;65.85;94212.50;4968956;28;20045;-76
2023/10/27 07:46:47;;;;;;;24.77;6.97;;;;;;;17.56;66.42;94199.25;4960586;28;20714;-75
2023/10/27 07:49:13;;;;;;;30.40;6.97;;;;;;;17.41;66.93;94189.25;4947465;28;20064;-76
2023/10/27 07:51:38;;;;;;;14.90;5.50;;;;;;;17.45;66.61;94182.88;4970012;28;20045;-76
2023/10/27 07:54:05;;;;;;;14.27;5.75;;;;;;;17.83;66.49;94229.91;4963602;28;20065;-75
2023/10/27 07:56:32;;;;;;;16.02;6.72;;;;;;;17.94;66.17;94226.38;4984648;28;20151;-75
2023/10/27 07:58:58;;;;;;;20.98;6.47;;;;;;;17.96;65.22;94218.00;4989401;28;20608;-75
2023/10/27 08:01:24;;;;;;;18.40;6.32;;;;;;;17.38;63.89;94128.28;4947559;28;20287;-76
2023/10/27 08:03:50;;;;;;;13.32;4.50;;;;;;;18.21;63.42;94226.72;4928946;28;20697;-76
2023/10/27 08:06:16;;;;;;;21.95;5.38;;;;;;;18.20;63.35;94217.88;4950674;28;20033;-75
2023/10/27 08:08:42;;;;;;;21.67;5.55;;;;;;;18.26;62.72;94203.06;4943953;28;20037;-74
2023/10/27 08:11:13;;;;;;;13.60;4.90;;;;;;;18.35;62.82;94209.06;4958037;28;20524;-74
2023/10/27 08:13:39;;;;;;;28.02;5.93;;;;;;;18.58;63.02;94208.50;4969572;28;20038;-75
2023/10/27 08:16:04;;;;;;;28.23;6.00;;;;;;;18.28;62.17;94165.94;4967744;28;20034;-74
2023/10/27 08:18:29;;;;;;;20.02;4.78;;;;;;;18.52;61.48;94181.09;4964359;28;20485;-74
2023/10/27 08:20:56;;;;;;;15.25;4.88;;;;;;;18.64;61.06;94199.03;4980521;28;20587;-75
2023/10/27 08:23:22;;;;;;;20.52;4.43;;;;;;;18.85;60.63;94203.00;4976363;28;20708;-74
2023/10/27 08:25:51;;;;;;;15.95;4.70;;;;;;;18.82;60.11;94181.47;4971117;28;20049;-75
2023/10/27 08:28:20;;;;;;;23.10;5.25;;;;;;;18.81;59.94;94174.53;4958702;28;20049;-74
2023/10/27 08:30:47;;;;;;;14.40;4.80;;;;;;;18.66;60.31;94175.31;4964503;28;20037;-74
2023/10/27 08:33:14;;;;;;;22.83;7.07;;;;;;;18.79;60.35;94172.19;4957245;28;20034;-76
2023/10/27 08:35:40;;;;;;;14.75;4.20;;;;;;;19.00;60.52;94184.53;4948447;28;20034;-76
2023/10/27 08:38:05;;;;;;;21.88;5.15;;;;;;;18.92;61.05;94194.31;4950160;28;20152;-76
2023/10/27 08:40:31;;;;;;;12.50;3.78;;;;;;;18.59;59.12;94137.56;4966081;28;20043;-76
2023/10/27 08:42:56;;;;;;;20.30;3.65;;;;;;;18.90;58.81;94175.13;4965987;28;20109;-78
2023/10/27 08:45:23;;;;;;;14.43;3.45;;;;;;;19.04;58.49;94167.38;4967427;28;20038;-76
2023/10/27 08:47:53;;;;;;;16.63;3.50;;;;;;;19.15;57.74;94184.50;4948697;28;20039;-75
2023/10/27 08:50:18;;;;;;;8.07;3.58;;;;;;;19.27;57.55;94203.19;4957642;28;20110;-75
2023/10/27 08:52:48;;;;;;;18.95;3.80;;;;;;;18.73;57.48;94119.09;4955383;28;20066;-75
2023/10/27 08:55:14;;;;;;;17.15;6.32;;;;;;;19.24;57.76;94198.50;4954337;28;20230;-75
2023/10/27 08:57:39;;;;;;;19.02;3.75;;;;;;;19.37;57.33;94201.09;4944569;28;20513;-75
2023/10/27 09:00:07;;;;;;;13.10;3.85;;;;;;;19.21;57.43;94166.19;4959872;28;20497;-76
2023/10/27 09:02:34;;;;;;;9.40;3.17;;;;;;;19.44;56.59;94182.41;4978513;28;20038;-75
2023/10/27 09:05:08;;;;;;;9.88;2.90;;;;;;;19.19;56.27;94158.47;4959623;28;20120;-75
2023/10/27 09:07:35;;;;;;;16.10;3.20;;;;;;;19.24;55.79;94142.06;4959204;28;20030;-75
2023/10/27 09:10:02;;;;;;;9.82;3.20;;;;;;;19.43;55.20;94151.28;4964596;28;20044;-75
2023/10/27 09:12:30;;;;;;;11.93;2.72;;;;;;;19.52;55.22;94159.94;4992987;28;21895;-74
2023/10/27 09:15:14;;;;;;;16.85;2.70;;;;;;;19.71;54.63;94175.28;4967225;28;20045;-75
2023/10/27 09:18:00;;;;;;;18.98;2.85;;;;;;;19.69;54.43;94151.44;4976262;28;20568;-75
2023/10/27 09:20:26;;;;;;;9.30;2.10;;;;;;;19.39;53.20;94086.69;4948049;28;20030;-76
2023/10/27 09:22:56;;;;;;;9.07;2.25;;;;;;;20.18;53.33;94150.78;4968031;28;21753;-75
2023/10/27 09:25:26;;;;;;;7.50;2.65;;;;;;;20.29;53.82;94139.06;4951269;28;20042;-76
2023/10/27 09:27:52;;;;;;;16.73;2.88;;;;;;;20.47;53.91;94136.69;4951181;28;20177;-75
2023/10/27 09:30:27;;;;;;;13.55;2.83;;;;;;;20.60;53.78;94138.06;4978373;28;20117;-75
2023/10/27 09:32:53;;;;;;;11.07;3.33;;;;;;;20.39;52.63;94116.16;4985991;28;20044;-74
2023/10/27 09:35:19;;;;;;;9.50;2.63;;;;;;;20.54;52.07;94117.94;4949538;28;20409;-75
2023/10/27 09:37:49;;;;;;;10.00;3.15;;;;;;;20.79;52.13;94110.25;4970123;28;20235;-76
2023/10/27 09:40:15;;;;;;;11.07;2.30;;;;;;;20.78;51.52;94081.75;4981049;28;20106;-75
2023/10/27 09:42:43;;;;;;;11.75;2.70;;;;;;;21.02;51.13;94091.31;4978205;28;20540;-76
2023/10/27 09:45:16;;;;;;;15.07;2.97;;;;;;;21.20;50.85;94105.06;4974502;28;20041;-76
2023/10/27 09:47:41;;;;;;;10.02;2.70;;;;;;;21.28;49.64;94099.41;4960374;28;20262;-76
2023/10/27 09:50:09;;;;;;;9.98;2.90;;;;;;;21.35;49.22;94087.91;4993132;28;20062;-75
2023/10/27 09:52:39;;;;;;;13.15;2.67;;;;;;;21.13;49.23;94094.94;4970533;28;20046;-76
2023/10/27 09:55:05;;;;;;;6.45;2.08;;;;;;;21.38;49.25;94093.34;4962501;28;20114;-76
2023/10/27 09:57:31;;;;;;;9.43;1.80;;;;;;;21.73;48.91;94101.06;4963765;28;20058;-76
2023/10/27 09:59:59;;;;;;;7.20;2.55;;;;;;;21.55;48.18;94048.81;4953029;28;20181;-77
2023/10/27 10:02:25;;;;;;;17.88;3.03;;;;;;;21.96;47.96;94092.81;4961994;28;20307;-76
2023/10/27 10:04:50;;;;;;;12.93;2.45;;;;;;;22.02;47.48;94080.56;4987908;28;20022;-75
2023/10/27 10:07:31;;;;;;;13.98;2.65;;;;;;;22.05;47.19;94070.94;4971041;28;20041;-77
2023/10/27 10:09:58;;;;;;;11.05;2.13;;;;;;;22.15;47.43;94059.44;4974476;28;20386;-77
2023/10/27 10:12:24;;;;;;;13.82;2.22;;;;;;;21.81;47.54;94032.53;4962686;28;20050;-75
2023/10/27 10:14:50;;;;;;;13.70;2.30;;;;;;;22.02;46.31;94061.66;4954692;28;20061;-75
2023/10/27 10:17:41;;;;;;;9.20;2.20;;;;;;;22.06;47.42;94078.66;4951974;28;20958;-77
2023/10/27 10:20:09;;;;;;;10.48;2.47;;;;;;;22.14;46.39;94091.06;4975850;28;20113;-76
2023/10/27 10:22:40;;;;;;;10.82;2.50;;;;;;;21.98;46.10;94085.13;4959737;28;20046;-77
2023/10/27 10:25:15;;;;;;;6.85;1.90;;;;;;;21.92;46.54;94095.47;4951275;28;20061;-77
2023/10/27 10:28:08;;;;;;;12.60;1.80;;;;;;;22.03;46.36;94117.19;4966894;28;20038;-77
2023/10/27 10:30:41;;;;;;;7.50;1.55;;;;;;;22.10;46.64;94106.47;4945842;28;20782;-76
2023/10/27 10:33:14;;;;;;;4.68;1.80;;;;;;;22.16;46.51;94098.78;4946806;28;20452;-78
2023/10/27 10:35:43;;;;;;;6.18;2.00;;;;;;;22.21;46.36;94103.84;4993526;28;20026;-78
2023/10/27 10:38:36;;;;;;;15.93;2.53;;;;;;;22.19;45.43;94092.66;4987015;28;20027;-77
2023/10/27 10:41:02;;;;;;;6.97;1.60;;;;;;;22.30;45.25;94093.50;4976607;28;20046;-77
2023/10/27 10:43:30;;;;;;;7.05;1.42;;;;;;;22.33;44.18;94065.78;4962907;28;20034;-78
2023/10/27 10:46:00;;;;;;;4.88;1.80;;;;;;;22.48;43.14;94078.22;4977226;28;20061;-78
2023/10/27 10:48:27;;;;;;;9.25;1.83;;;;;;;22.69;43.20;94081.06;4991294;28;20041;-77
2023/10/27 10:50:56;;;;;;;9.88;2.08;;;;;;;22.44;43.33;94053.09;4993138;28;20038;-78
2023/10/27 10:53:24;;;;;;;9.48;1.92;;;;;;;22.82;43.25;94092.38;4991998;28;20018;-78
2023/10/27 10:55:51;;;;;;;10.45;2.00;;;;;;;22.75;42.75;94094.25;4990095;28;20042;-78
2023/10/27 10:58:24;;;;;;;9.82;2.70;;;;;;;22.74;42.74;94060.28;4974767;28;20065;-78
2023/10/27 11:00:53;;;;;;;11.27;3.10;;;;;;;22.77;42.74;94076.53;4981978;28;20030;-78
2023/10/27 11:03:28;;;;;;;13.60;2.75;;;;;;;22.86;42.73;94084.31;4967504;28;20038;-77
2023/10/27 11:06:06;;;;;;;12.18;1.77;;;;;;;22.67;42.60;94052.88;4992398;28;20031;-78
2023/10/27 11:08:34;;;;;;;7.50;1.92;;;;;;;22.66;42.57;94062.13;4978983;28;20078;-78
2023/10/27 11:11:18;;;;;;;6.18;1.73;;;;;;;22.60;41.84;94069.81;5006222;28;20379;-77
2023/10/27 11:13:47;;;;;;;10.60;3.15;;;;;;;22.27;42.72;94016.72;5022066;28;20055;-78
2023/10/27 11:16:13;;;;;;;10.80;2.65;;;;;;;22.42;42.87;94043.84;5017058;28;20161;-78
2023/10/27 11:18:39;;;;;;;7.50;1.23;;;;;;;22.47;41.76;94052.38;5016497;28;20037;-77
2023/10/27 11:21:05;;;;;;;4.20;1.23;;;;;;;22.33;41.91;94044.16;5018604;28;20042;-77
2023/10/27 11:23:33;;;;;;;9.10;1.58;;;;;;;22.51;42.27;94052.38;5019320;22;20049;-80
2023/10/27 11:26:04;;;;;;;7.22;2.15;;;;;;;22.42;42.72;94038.44;5056324;28;20474;-81